Time;durP1;ratioP1;P1;durP2;ratioP2;P2;SDS_P1;SDS_P2;PMS_P1;PMS_P2;Temp;Humidity;BMP_temperature;BMP_pressure;BME280_temperature;BME280_humidity;BME280_pressure;Samples;Min_cycle;Max_cycle;Signal;HPM_P1;HPM_P2
2021/03/27 00:01:55;;;;;;;;;;;8.40;84.10;;;;;;4842594;29;20393;-89
2021/03/27 00:04:40;;;;;;;;;;;8.20;83.80;;;;;;4829205;29;19925;-89
2021/03/27 00:07:23;;;;;;;;;;;8.20;83.90;;;;;;4824085;29;20001;-90
2021/03/27 00:09:52;;;;;;;;;;;8.10;84.30;;;;;;4824602;29;19924;-89
2021/03/27 00:12:18;;;;;;;;;;;8.00;84.50;;;;;;4824867;29;19993;-89
2021/03/27 00:14:46;;;;;;;;;;;7.90;84.30;;;;;;4843906;29;20389;-90
2021/03/27 00:17:15;;;;;;;;;;;7.80;84.20;;;;;;4845925;29;19920;-90
2021/03/27 00:19:44;;;;;;;;;;;7.80;84.70;;;;;;4845217;29;20483;-89
2021/03/27 00:22:17;;;;;;;;;;;7.80;85.40;;;;;;4846339;29;20293;-89
2021/03/27 00:24:58;;;;;;;;;;;7.80;84.70;;;;;;4846196;29;19925;-91
2021/03/27 00:27:27;;;;;;;;;;;7.90;84.70;;;;;;4845793;29;19973;-89
2021/03/27 00:29:56;;;;;;;;;;;7.90;84.60;;;;;;4846189;29;19946;-89
2021/03/27 00:32:31;;;;;;;;;;;7.90;84.60;;;;;;4841557;29;19972;-89
2021/03/27 00:35:00;;;;;;;;;;;7.90;84.60;;;;;;4827348;29;19974;-88
2021/03/27 00:37:28;;;;;;;;;;;7.90;84.40;;;;;;4827407;29;20365;-91
2021/03/27 00:39:58;;;;;;;;;;;7.90;84.60;;;;;;4840065;29;19932;-89
2021/03/27 00:42:34;;;;;;;;;;;7.90;84.70;;;;;;4853707;29;19950;-90
2021/03/27 00:45:01;;;;;;;;;;;8.00;84.70;;;;;;4852594;29;20362;-91
2021/03/27 00:47:28;;;;;;;;;;;7.90;84.50;;;;;;4845365;29;19925;-90
2021/03/27 00:49:57;;;;;;;;;;;8.00;84.90;;;;;;4845969;29;20289;-90
2021/03/27 00:52:23;;;;;;;;;;;8.00;84.80;;;;;;4839688;29;19924;-91
2021/03/27 00:54:56;;;;;;;;;;;8.00;84.70;;;;;;4826546;29;19924;-89
2021/03/27 00:57:25;;;;;;;;;;;7.90;84.70;;;;;;4834477;29;19924;-89
2021/03/27 00:59:50;;;;;;;;;;;7.90;84.60;;;;;;4845237;29;19925;-90
2021/03/27 01:02:16;;;;;;;;;;;7.90;84.50;;;;;;4841197;29;19974;-92
2021/03/27 01:04:43;;;;;;;;;;;7.90;84.70;;;;;;4827238;29;19925;-92
2021/03/27 01:07:10;;;;;;;;;;;7.90;84.60;;;;;;4826652;29;20021;-91
2021/03/27 01:09:44;;;;;;;;;;;7.90;84.90;;;;;;4827379;29;20293;-91
2021/03/27 01:12:16;;;;;;;;;;;7.90;84.70;;;;;;4826776;29;19925;-91
2021/03/27 01:14:47;;;;;;;;;;;7.90;84.50;;;;;;4826856;29;19931;-91
2021/03/27 01:17:15;;;;;;;;;;;7.90;84.70;;;;;;4827090;29;20114;-90
2021/03/27 01:19:43;;;;;;;;;;;7.90;84.60;;;;;;4826576;29;19925;-90
2021/03/27 01:22:12;;;;;;;;;;;7.90;84.50;;;;;;4826023;29;19952;-91
2021/03/27 01:24:38;;;;;;;;;;;7.80;84.30;;;;;;4826829;29;20038;-89
2021/03/27 01:27:24;;;;;;;;;;;7.90;84.50;;;;;;4833977;29;20382;-89
2021/03/27 01:29:49;;;;;;;;;;;7.90;84.40;;;;;;4844065;29;20356;-89
2021/03/27 01:32:27;;;;;;;;;;;7.90;84.20;;;;;;4840710;29;20033;-89
2021/03/27 01:35:02;;;;;;;;;;;7.90;84.30;;;;;;4826370;29;19936;-89
2021/03/27 01:37:48;;;;;;;;;;;7.80;84.20;;;;;;4826080;29;20023;-91
2021/03/27 01:40:26;;;;;;;;;;;7.90;84.30;;;;;;4825930;29;19924;-89
2021/03/27 01:43:07;;;;;;;;;;;7.80;84.00;;;;;;4827678;29;19932;-89
2021/03/27 01:45:51;;;;;;;;;;;7.80;84.00;;;;;;4844763;29;20282;-89
2021/03/27 01:48:21;;;;;;;;;;;7.80;84.10;;;;;;4844620;29;19966;-89
2021/03/27 01:50:57;;;;;;;;;;;7.70;84.20;;;;;;4846200;29;19931;-90
2021/03/27 01:53:46;;;;;;;;;;;7.70;84.60;;;;;;4846584;29;20365;-89
2021/03/27 01:56:29;;;;;;;;;;;7.80;84.50;;;;;;4842301;29;19924;-89
2021/03/27 01:59:00;;;;;;;;;;;7.80;84.50;;;;;;4843106;29;19933;-89
2021/03/27 02:01:38;;;;;;;;;;;7.80;84.60;;;;;;4837528;29;19928;-89
2021/03/27 02:04:06;;;;;;;;;;;7.80;84.50;;;;;;4835209;29;19932;-89
2021/03/27 02:06:35;;;;;;;;;;;7.80;84.70;;;;;;4829826;29;19925;-89
2021/03/27 02:09:00;;;;;;;;;;;7.80;84.50;;;;;;4834721;29;20389;-89
2021/03/27 02:11:38;;;;;;;;;;;7.80;84.60;;;;;;4845856;29;19925;-89
2021/03/27 02:14:04;;;;;;;;;;;7.80;84.60;;;;;;4837077;29;19931;-87
2021/03/27 02:16:32;;;;;;;;;;;7.80;84.90;;;;;;4841032;29;19932;-88
2021/03/27 02:19:04;;;;;;;;;;;7.80;85.00;;;;;;4840981;29;19929;-87
2021/03/27 02:21:51;;;;;;;;;;;7.70;85.00;;;;;;4843541;29;19961;-87
2021/03/27 02:24:41;;;;;;;;;;;7.70;85.20;;;;;;4839734;29;19931;-86
2021/03/27 02:27:44;;;;;;;;;;;7.70;85.40;;;;;;4826303;29;19937;-87
2021/03/27 02:30:36;;;;;;;;;;;7.70;85.50;;;;;;4824466;29;20016;-87
2021/03/27 02:33:10;;;;;;;;;;;7.70;85.70;;;;;;4840054;29;20460;-87
2021/03/27 02:35:42;;;;;;;;;;;7.60;86.00;;;;;;4841232;29;19928;-87
2021/03/27 02:38:23;;;;;;;;;;;7.60;86.00;;;;;;4839174;29;19973;-84
2021/03/27 02:40:57;;;;;;;;;;;7.60;86.10;;;;;;4837181;29;20023;-88
2021/03/27 02:43:49;;;;;;;;;;;7.50;86.10;;;;;;4831288;29;19929;-86
2021/03/27 02:46:33;;;;;;;;;;;7.50;86.20;;;;;;4830133;29;19933;-86
2021/03/27 02:49:17;;;;;;;;;;;7.50;86.20;;;;;;4831212;29;20300;-86
2021/03/27 02:51:47;;;;;;;;;;;7.50;86.10;;;;;;4840844;29;19924;-86
2021/03/27 02:54:15;;;;;;;;;;;7.50;86.40;;;;;;4842639;29;19980;-85
2021/03/27 02:56:53;;;;;;;;;;;7.50;86.70;;;;;;4843465;29;19976;-85
2021/03/27 02:59:22;;;;;;;;;;;7.50;86.80;;;;;;4843264;29;20086;-86
2021/03/27 03:01:50;;;;;;;;;;;7.40;86.70;;;;;;4842201;29;19984;-85
2021/03/27 03:04:25;;;;;;;;;;;7.40;87.70;;;;;;4842627;29;19928;-85
2021/03/27 03:07:01;;;;;;;;;;;7.40;87.40;;;;;;4842293;29;20801;-85
2021/03/27 03:09:50;;;;;;;;;;;7.30;87.30;;;;;;4843291;29;19924;-85
2021/03/27 03:12:23;;;;;;;;;;;7.30;87.60;;;;;;4840955;29;19950;-85
2021/03/27 03:15:01;;;;;;;;;;;7.30;87.40;;;;;;4841645;29;20010;-85
2021/03/27 03:17:39;;;;;;;;;;;7.30;87.60;;;;;;4836303;29;20374;-86
2021/03/27 03:20:10;;;;;;;;;;;7.30;87.70;;;;;;4824447;29;19924;-85
2021/03/27 03:22:48;;;;;;;;;;;7.20;87.70;;;;;;4823835;29;20370;-85
2021/03/27 03:25:16;;;;;;;;;;;7.20;87.70;;;;;;4833021;29;19931;-86
2021/03/27 03:27:54;;;;;;;;;;;7.20;87.60;;;;;;4842379;29;19925;-85
2021/03/27 03:30:31;;;;;;;;;;;7.10;87.70;;;;;;4842756;29;20309;-86
2021/03/27 03:33:09;;;;;;;;;;;7.10;87.90;;;;;;4842693;29;19930;-85
2021/03/27 03:35:37;;;;;;;;;;;7.10;87.90;;;;;;4842080;29;19924;-85
2021/03/27 03:38:22;;;;;;;;;;;7.10;87.80;;;;;;4843130;29;19955;-85
2021/03/27 03:41:08;;;;;;;;;;;7.10;87.80;;;;;;4842986;29;20014;-85
2021/03/27 03:43:53;;;;;;;;;;;7.10;87.70;;;;;;4842022;29;19940;-83
2021/03/27 03:46:31;;;;;;;;;;;7.00;87.50;;;;;;4842163;29;19939;-85
2021/03/27 03:49:26;;;;;;;;;;;7.00;87.60;;;;;;4842069;29;19928;-85
2021/03/27 03:52:03;;;;;;;;;;;7.00;87.60;;;;;;4812314;29;19982;-85
2021/03/27 03:54:44;;;;;;;;;;;7.00;87.70;;;;;;4843549;29;20301;-84
2021/03/27 03:57:16;;;;;;;;;;;6.90;87.50;;;;;;4826911;29;19981;-85
2021/03/27 03:59:48;;;;;;;;;;;7.00;87.60;;;;;;4849763;29;19920;-85
2021/03/27 04:02:27;;;;;;;;;;;6.90;87.50;;;;;;4838283;29;19977;-86
2021/03/27 04:04:59;;;;;;;;;;;6.90;87.40;;;;;;4826977;29;19944;-85
2021/03/27 04:07:43;;;;;;;;;;;6.90;87.30;;;;;;4862082;29;20321;-85
2021/03/27 04:10:19;;;;;;;;;;;6.90;87.30;;;;;;4843817;29;19924;-86
2021/03/27 04:12:47;;;;;;;;;;;6.90;87.40;;;;;;4827595;29;19972;-86
2021/03/27 04:15:31;;;;;;;;;;;6.80;87.30;;;;;;4827531;29;20374;-86
2021/03/27 04:18:00;;;;;;;;;;;6.80;87.20;;;;;;4826781;29;20286;-85
2021/03/27 04:20:32;;;;;;;;;;;6.80;87.20;;;;;;4850069;29;19971;-85
2021/03/27 04:23:11;;;;;;;;;;;6.80;87.30;;;;;;4865171;29;20442;-85
2021/03/27 04:26:02;;;;;;;;;;;6.80;87.20;;;;;;4864025;29;20007;-85
2021/03/27 04:28:33;;;;;;;;;;;6.70;87.10;;;;;;4864304;29;20018;-84
2021/03/27 04:31:25;;;;;;;;;;;6.70;87.00;;;;;;4863491;29;20358;-84
2021/03/27 04:34:08;;;;;;;;;;;6.70;86.90;;;;;;4831259;29;20291;-83
2021/03/27 04:36:57;;;;;;;;;;;6.70;86.80;;;;;;4827221;29;20305;-84
2021/03/27 04:39:25;;;;;;;;;;;6.70;86.80;;;;;;4789267;29;20318;-84
2021/03/27 04:41:58;;;;;;;;;;;6.70;86.70;;;;;;4847049;29;20053;-84
2021/03/27 04:44:34;;;;;;;;;;;6.60;87.00;;;;;;4863691;29;19924;-84
2021/03/27 04:47:12;;;;;;;;;;;6.60;86.90;;;;;;4863008;29;19924;-86
2021/03/27 04:49:53;;;;;;;;;;;6.60;86.70;;;;;;4863670;29;20366;-85
2021/03/27 04:52:22;;;;;;;;;;;6.60;87.10;;;;;;4862658;29;19996;-84
2021/03/27 04:54:50;;;;;;;;;;;6.50;87.00;;;;;;4840433;29;19981;-84
2021/03/27 04:57:45;;;;;;;;;;;6.50;87.10;;;;;;4826769;29;19936;-88
2021/03/27 05:00:20;;;;;;;;;;;6.50;88.90;;;;;;4761732;29;19926;-86
2021/03/27 05:02:51;;;;;;;;;;;6.50;88.20;;;;;;4863497;29;20130;-87
2021/03/27 05:05:22;;;;;;;;;;;6.50;88.20;;;;;;4851423;29;19924;-86
2021/03/27 05:07:51;;;;;;;;;;;6.40;87.80;;;;;;4844705;29;20015;-85
2021/03/27 05:10:26;;;;;;;;;;;6.40;88.10;;;;;;4844953;29;19931;-85
2021/03/27 05:13:10;;;;;;;;;;;6.30;88.00;;;;;;4844776;29;20401;-83
2021/03/27 05:15:47;;;;;;;;;;;6.30;88.10;;;;;;4825084;29;19929;-83
2021/03/27 05:18:18;;;;;;;;;;;6.30;87.90;;;;;;4826402;29;19925;-82
2021/03/27 05:20:45;;;;;;;;;;;6.30;87.90;;;;;;4826037;29;19966;-82
2021/03/27 05:23:29;;;;;;;;;;;6.20;87.80;;;;;;4826115;29;20032;-83
2021/03/27 05:26:07;;;;;;;;;;;6.20;87.80;;;;;;4826237;29;19925;-84
2021/03/27 05:28:52;;;;;;;;;;;6.20;87.60;;;;;;4825727;29;19929;-84
2021/03/27 05:31:29;;;;;;;;;;;6.30;87.80;;;;;;4826094;29;20015;-83
2021/03/27 05:34:14;;;;;;;;;;;6.20;87.60;;;;;;4834145;29;19924;-84
2021/03/27 05:36:52;;;;;;;;;;;6.30;88.10;;;;;;4844202;29;19931;-83
2021/03/27 05:39:42;;;;;;;;;;;6.30;87.90;;;;;;4843950;29;19931;-84
2021/03/27 05:42:28;;;;;;;;;;;6.30;88.10;;;;;;4843412;29;19924;-84
2021/03/27 05:44:57;;;;;;;;;;;6.30;88.00;;;;;;4834547;29;19924;-83
2021/03/27 05:47:41;;;;;;;;;;;6.30;88.10;;;;;;4825897;29;19975;-83
2021/03/27 05:50:17;;;;;;;;;;;6.30;88.00;;;;;;4829610;29;20085;-85
2021/03/27 05:52:52;;;;;;;;;;;6.30;88.10;;;;;;4843251;29;20313;-84
2021/03/27 05:55:36;;;;;;;;;;;6.30;87.90;;;;;;4825695;29;19928;-84
2021/03/27 05:58:10;;;;;;;;;;;6.30;88.10;;;;;;4825696;29;19925;-83
2021/03/27 06:00:43;;;;;;;;;;;6.30;88.10;;;;;;4825665;29;19929;-83
2021/03/27 06:03:27;;;;;;;;;;;6.30;88.20;;;;;;4824789;29;20031;-87
2021/03/27 06:06:08;;;;;;;;;;;6.30;89.10;;;;;;4834995;29;19928;-85
2021/03/27 06:08:42;;;;;;;;;;;6.30;89.10;;;;;;4837692;29;19981;-84
2021/03/27 06:11:35;;;;;;;;;;;6.30;89.20;;;;;;4836024;29;19932;-84
2021/03/27 06:14:19;;;;;;;;;;;6.30;89.20;;;;;;4837487;29;19925;-84
2021/03/27 06:16:53;;;;;;;;;;;6.30;89.50;;;;;;4837604;29;19927;-85
2021/03/27 06:19:44;;;;;;;;;;;6.20;89.40;;;;;;4844481;29;19932;-86
2021/03/27 06:22:27;;;;;;;;;;;6.20;89.50;;;;;;4850918;29;20008;-85
2021/03/27 06:25:15;;;;;;;;;;;6.20;89.70;;;;;;4837234;29;20012;-87
2021/03/27 06:28:06;;;;;;;;;;;6.20;89.60;;;;;;4849549;29;19924;-87
2021/03/27 06:30:44;;;;;;;;;;;6.20;89.60;;;;;;4839689;29;19935;-84
2021/03/27 06:33:38;;;;;;;;;;;6.20;89.70;;;;;;4847878;29;19980;-84
2021/03/27 06:36:19;;;;;;;;;;;6.10;89.50;;;;;;4837590;29;19974;-85
2021/03/27 06:39:05;;;;;;;;;;;6.20;89.60;;;;;;4832984;29;19989;-84
2021/03/27 06:41:49;;;;;;;;;;;6.20;89.60;;;;;;4824561;29;19947;-85
2021/03/27 06:44:35;;;;;;;;;;;6.20;89.50;;;;;;4836606;29;19935;-85
2021/03/27 06:47:03;;;;;;;;;;;6.20;89.40;;;;;;4831957;29;19929;-86
2021/03/27 06:49:31;;;;;;;;;;;6.20;89.40;;;;;;4825036;29;20344;-85
2021/03/27 06:52:05;;;;;;;;;;;6.20;89.50;;;;;;4836380;29;19935;-84
2021/03/27 06:54:56;;;;;;;;;;;6.20;89.40;;;;;;4843205;29;19924;-85
2021/03/27 06:57:49;;;;;;;;;;;6.20;89.40;;;;;;4833748;29;20004;-91
2021/03/27 07:00:15;;;;;;;;;;;6.20;89.40;;;;;;4823971;29;20274;-83
2021/03/27 07:02:59;;;;;;;;;;;6.30;89.20;;;;;;4824902;29;19931;-83
2021/03/27 07:05:43;;;;;;;;;;;6.30;89.10;;;;;;4824935;29;19925;-83
2021/03/27 07:08:30;;;;;;;;;;;6.30;88.70;;;;;;4824954;29;19943;-82
2021/03/27 07:11:15;;;;;;;;;;;6.30;88.40;;;;;;4824829;29;20343;-83
2021/03/27 07:14:08;;;;;;;;;;;6.30;88.00;;;;;;4823916;29;19925;-80
2021/03/27 07:16:41;;;;;;;;;;;6.30;87.70;;;;;;4829887;29;20046;-79
2021/03/27 07:19:19;;;;;;;;;;;6.40;87.50;;;;;;4842679;29;20015;-82
2021/03/27 07:24:56;;;;;;;;;;;6.40;86.90;;;;;;4874008;23;20369;-82
2021/03/27 07:27:40;;;;;;;;;;;6.40;86.70;;;;;;4867269;29;19924;-81
2021/03/27 07:30:25;;;;;;;;;;;6.40;86.20;;;;;;4879437;29;19930;-81
2021/03/27 07:32:56;;;;;;;;;;;6.40;86.10;;;;;;4873128;29;19931;-81
2021/03/27 07:35:42;;;;;;;;;;;6.50;86.00;;;;;;4860320;29;19995;-82
2021/03/27 07:38:19;;;;;;;;;;;6.50;86.00;;;;;;4867659;29;19971;-83
2021/03/27 07:41:17;;;;;;;;;;;6.60;86.10;;;;;;4867314;29;19930;-82
2021/03/27 07:44:05;;;;;;;;;;;6.60;85.80;;;;;;4861001;29;19946;-82
2021/03/27 07:46:54;;;;;;;;;;;6.70;85.60;;;;;;4876097;29;20034;-81
2021/03/27 07:49:47;;;;;;;;;;;6.70;85.30;;;;;;4866658;29;20301;-81
2021/03/27 07:52:39;;;;;;;;;;;6.70;84.30;;;;;;4878422;29;19930;-81
2021/03/27 07:55:24;;;;;;;;;;;6.70;83.60;;;;;;4869796;29;19931;-81
2021/03/27 07:58:09;;;;;;;;;;;6.70;83.50;;;;;;4860734;29;20381;-81
2021/03/27 08:00:40;;;;;;;;;;;6.70;83.30;;;;;;4869718;29;19932;-81
2021/03/27 08:03:22;;;;;;;;;;;6.70;82.10;;;;;;4862409;29;19927;-81
2021/03/27 08:05:47;;;;;;;;;;;6.80;80.90;;;;;;4867521;29;19925;-81
2021/03/27 08:08:13;;;;;;;;;;;6.70;80.90;;;;;;4871694;29;19977;-82
2021/03/27 08:10:41;;;;;;;;;;;6.70;81.00;;;;;;4887907;29;20329;-81
2021/03/27 08:13:16;;;;;;;;;;;6.80;81.10;;;;;;4875424;29;20490;-82
2021/03/27 08:16:00;;;;;;;;;;;6.80;80.60;;;;;;4872382;29;19963;-80
2021/03/27 08:18:44;;;;;;;;;;;6.80;80.60;;;;;;4871779;29;19927;-81
2021/03/27 08:21:28;;;;;;;;;;;6.80;80.60;;;;;;4872973;29;20353;-81
2021/03/27 08:24:12;;;;;;;;;;;6.80;79.90;;;;;;4873692;29;20690;-81
2021/03/27 08:26:44;;;;;;;;;;;6.80;79.30;;;;;;4866233;29;20384;-81
2021/03/27 08:29:41;;;;;;;;;;;6.80;79.90;;;;;;4867825;29;19924;-81
2021/03/27 08:32:38;;;;;;;;;;;6.90;80.30;;;;;;4852891;29;19923;-80
2021/03/27 08:35:04;;;;;;;;;;;6.90;80.90;;;;;;4873845;29;20027;-80
2021/03/27 08:37:51;;;;;;;;;;;7.00;81.20;;;;;;4878477;29;19998;-82
2021/03/27 08:40:16;;;;;;;;;;;7.10;81.00;;;;;;4877177;29;19930;-83
2021/03/27 08:43:01;;;;;;;;;;;7.10;79.80;;;;;;4874170;29;20296;-82
2021/03/27 08:45:45;;;;;;;;;;;7.20;79.00;;;;;;4879327;29;19931;-82
2021/03/27 08:48:29;;;;;;;;;;;7.30;76.90;;;;;;4882088;29;19928;-83
2021/03/27 08:51:15;;;;;;;;;;;7.30;76.80;;;;;;4880207;29;19932;-82
2021/03/27 08:53:55;;;;;;;;;;;7.30;75.70;;;;;;4880198;29;19924;-82
2021/03/27 08:56:39;;;;;;;;;;;7.30;74.40;;;;;;4863251;29;19924;-83
2021/03/27 08:59:14;;;;;;;;;;;7.30;75.70;;;;;;4874127;29;19939;-82
2021/03/27 09:01:56;;;;;;;;;;;7.40;76.30;;;;;;4848681;29;20393;-82
2021/03/27 09:04:38;;;;;;;;;;;7.40;75.40;;;;;;4865120;29;19955;-81
2021/03/27 09:07:25;;;;;;;;;;;7.40;75.30;;;;;;4878529;29;19927;-82
2021/03/27 09:10:09;;;;;;;;;;;7.30;74.00;;;;;;4877530;29;19976;-83
2021/03/27 09:12:38;;;;;;;;;;;7.30;74.50;;;;;;4872924;29;20031;-83
2021/03/27 09:15:29;;;;;;;;;;;7.30;75.50;;;;;;4877719;29;20373;-82
2021/03/27 09:18:15;;;;;;;;;;;7.40;73.20;;;;;;4879862;29;19923;-82
2021/03/27 09:21:00;;;;;;;;;;;7.40;72.80;;;;;;4879055;29;19987;-82
2021/03/27 09:23:32;;;;;;;;;;;7.40;74.10;;;;;;4873284;29;20436;-82
2021/03/27 09:26:04;;;;;;;;;;;7.40;74.10;;;;;;4870019;29;19924;-82
2021/03/27 09:28:38;;;;;;;;;;;7.30;74.80;;;;;;4875398;29;19946;-83
2021/03/27 09:31:14;;;;;;;;;;;7.30;75.10;;;;;;4866929;29;19928;-81
2021/03/27 09:33:55;;;;;;;;;;;7.30;75.80;;;;;;4865997;29;20456;-81
2021/03/27 09:36:42;;;;;;;;;;;7.20;76.20;;;;;;4846903;29;20323;-82
2021/03/27 09:39:19;;;;;;;;;;;7.20;76.10;;;;;;4870925;29;19956;-81
2021/03/27 09:42:03;;;;;;;;;;;7.20;76.70;;;;;;4872810;29;19928;-82
2021/03/27 09:44:37;;;;;;;;;;;7.20;76.50;;;;;;4881080;29;19928;-82
2021/03/27 09:47:03;;;;;;;;;;;7.20;77.50;;;;;;4881066;29;19952;-82
2021/03/27 09:49:37;;;;;;;;;;;7.20;77.40;;;;;;4880498;29;19979;-82
2021/03/27 09:52:06;;;;;;;;;;;7.20;77.40;;;;;;4880639;29;19946;-81
2021/03/27 09:54:37;;;;;;;;;;;7.20;76.90;;;;;;4880268;29;19924;-82
2021/03/27 09:57:12;;;;;;;;;;;7.20;75.90;;;;;;4880818;29;19930;-82
2021/03/27 09:59:38;;;;;;;;;;;7.20;75.80;;;;;;4881250;29;19923;-82
2021/03/27 10:02:22;;;;;;;;;;;7.10;74.70;;;;;;4880123;29;19976;-82
2021/03/27 10:04:47;;;;;;;;;;;7.10;75.30;;;;;;4879911;29;19928;-82
2021/03/27 10:07:21;;;;;;;;;;;7.20;75.30;;;;;;4880687;29;19972;-82
2021/03/27 10:10:10;;;;;;;;;;;7.20;75.10;;;;;;4880474;29;20002;-82
2021/03/27 10:12:58;;;;;;;;;;;7.20;75.50;;;;;;4866986;29;19924;-82
2021/03/27 10:15:29;;;;;;;;;;;7.30;75.20;;;;;;4880366;29;19924;-82
2021/03/27 10:18:03;;;;;;;;;;;7.30;74.70;;;;;;4880571;29;19919;-82
2021/03/27 10:20:35;;;;;;;;;;;7.40;74.90;;;;;;4880901;29;19980;-82
2021/03/27 10:23:06;;;;;;;;;;;7.50;75.30;;;;;;4879719;29;20368;-82
2021/03/27 10:25:34;;;;;;;;;;;7.50;75.00;;;;;;4880519;29;20428;-82
2021/03/27 10:28:14;;;;;;;;;;;7.70;75.10;;;;;;4880167;29;19924;-82
2021/03/27 10:30:48;;;;;;;;;;;7.80;75.90;;;;;;4863388;29;19936;-82
2021/03/27 10:33:17;;;;;;;;;;;7.90;75.50;;;;;;4879463;29;20395;-82
2021/03/27 10:35:45;;;;;;;;;;;8.00;72.40;;;;;;4880335;29;19924;-82
2021/03/27 10:38:33;;;;;;;;;;;8.00;71.70;;;;;;4879335;29;19955;-82
2021/03/27 10:41:00;;;;;;;;;;;8.10;72.40;;;;;;4880259;29;19923;-83
2021/03/27 10:43:44;;;;;;;;;;;8.10;72.50;;;;;;4880419;29;20322;-82
2021/03/27 10:46:10;;;;;;;;;;;8.10;72.60;;;;;;4879207;29;20376;-82
2021/03/27 10:48:51;;;;;;;;;;;8.00;70.70;;;;;;4880065;29;20384;-82
2021/03/27 10:51:36;;;;;;;;;;;8.00;68.50;;;;;;4879118;29;20392;-82
2021/03/27 10:54:14;;;;;;;;;;;7.90;67.90;;;;;;4879559;29;20372;-81
2021/03/27 10:56:56;;;;;;;;;;;7.90;66.40;;;;;;4880135;29;19930;-82
2021/03/27 10:59:26;;;;;;;;;;;7.80;66.70;;;;;;4878504;29;20010;-82
2021/03/27 11:02:19;;;;;;;;;;;7.80;69.00;;;;;;4879962;29;20471;-82
2021/03/27 11:05:07;;;;;;;;;;;7.80;69.90;;;;;;4879907;29;19959;-82
2021/03/27 11:07:38;;;;;;;;;;;7.90;70.40;;;;;;4879771;29;19973;-82
2021/03/27 11:10:16;;;;;;;;;;;8.00;68.80;;;;;;4879780;29;19920;-82
2021/03/27 11:12:51;;;;;;;;;;;8.10;69.00;;;;;;4878756;29;20497;-82
2021/03/27 11:15:40;;;;;;;;;;;8.20;68.40;;;;;;4879606;29;19920;-82
2021/03/27 11:18:24;;;;;;;;;;;8.20;69.70;;;;;;4879467;29;20340;-82
2021/03/27 11:20:56;;;;;;;;;;;8.20;69.60;;;;;;4879218;29;20011;-82
2021/03/27 11:23:30;;;;;;;;;;;8.30;68.70;;;;;;4879357;29;19924;-82
2021/03/27 11:26:14;;;;;;;;;;;8.30;67.80;;;;;;4870600;29;20376;-82
2021/03/27 11:28:39;;;;;;;;;;;8.40;68.00;;;;;;4860757;29;19920;-83
2021/03/27 11:31:28;;;;;;;;;;;8.40;67.00;;;;;;4879081;29;20023;-83
2021/03/27 11:33:57;;;;;;;;;;;8.40;66.90;;;;;;4866238;29;20014;-83
2021/03/27 11:36:37;;;;;;;;;;;8.50;66.80;;;;;;4878947;29;19923;-83
2021/03/27 11:39:10;;;;;;;;;;;8.50;66.30;;;;;;4875769;29;19923;-83
2021/03/27 11:41:46;;;;;;;;;;;8.50;66.10;;;;;;4871753;29;19986;-84
2021/03/27 11:44:30;;;;;;;;;;;8.50;66.50;;;;;;4874462;29;19994;-83
2021/03/27 11:46:59;;;;;;;;;;;8.50;66.30;;;;;;4867488;29;20375;-82
2021/03/27 11:49:43;;;;;;;;;;;8.50;66.10;;;;;;4879810;29;19927;-86
2021/03/27 11:52:20;;;;;;;;;;;8.40;66.40;;;;;;4874798;29;19923;-81
2021/03/27 11:54:54;;;;;;;;;;;8.40;66.20;;;;;;4875896;29;20273;-81
2021/03/27 11:57:22;;;;;;;;;;;8.30;66.60;;;;;;4877922;29;19959;-80
2021/03/27 12:02:50;;;;;;;;;;;8.20;69.20;;;;;;4870434;29;19931;-82
2021/03/27 12:05:25;;;;;;;;;;;8.00;71.50;;;;;;4864808;29;19924;-84
2021/03/27 12:08:01;;;;;;;;;;;7.80;72.60;;;;;;4865776;29;20022;-83
2021/03/27 12:10:27;;;;;;;;;;;7.70;74.10;;;;;;4874364;29;19924;-83
2021/03/27 12:13:13;;;;;;;;;;;7.70;75.40;;;;;;4883026;29;20341;-83
2021/03/27 12:15:57;;;;;;;;;;;7.70;76.40;;;;;;4882455;29;19924;-85
2021/03/27 12:18:42;;;;;;;;;;;7.70;76.60;;;;;;4882769;29;20376;-83
2021/03/27 12:21:33;;;;;;;;;;;7.70;76.60;;;;;;4873141;29;20022;-83
2021/03/27 12:24:19;;;;;;;;;;;7.60;76.90;;;;;;4868351;29;19924;-83
2021/03/27 12:27:12;;;;;;;;;;;7.50;77.30;;;;;;4852412;29;19980;-83
2021/03/27 12:29:56;;;;;;;;;;;7.50;77.40;;;;;;4882061;29;20014;-83
2021/03/27 12:32:27;;;;;;;;;;;7.40;77.30;;;;;;4872885;29;20381;-84
2021/03/27 12:35:22;;;;;;;;;;;7.30;77.70;;;;;;4866433;29;19924;-83
2021/03/27 12:38:06;;;;;;;;;;;7.30;78.30;;;;;;4787431;29;19937;-86
2021/03/27 12:54:06;;;;;;;;;;;7.50;80.00;;;;;;4788439;29;19931;-83
2021/03/27 12:57:06;;;;;;;;;;;7.50;80.00;;;;;;4788430;29;20374;-83
2021/03/27 13:10:18;;;;;;;;;;;7.60;80.90;;;;;;4784283;29;19987;-83
2021/03/27 13:13:03;;;;;;;;;;;7.60;81.60;;;;;;4779438;29;20072;-85
2021/03/27 13:15:49;;;;;;;;;;;7.60;80.70;;;;;;4862724;29;20377;-83
2021/03/27 13:18:32;;;;;;;;;;;7.70;80.70;;;;;;4864763;29;19931;-83
2021/03/27 13:21:15;;;;;;;;;;;7.80;80.30;;;;;;4875226;29;19924;-83
2021/03/27 13:24:16;;;;;;;;;;;;;;;;;;;;;
2021/03/27 13:30:12;;;;;;;;;;;8.00;80.40;;;;;;4877850;29;20273;-82
2021/03/27 13:33:17;;;;;;;;;;;8.10;79.50;;;;;;4880737;29;20008;-83
2021/03/27 13:36:34;;;;;;;;;;;8.20;77.00;;;;;;4823794;29;19999;-83
2021/03/27 13:45:49;;;;;;;;;;;8.30;77.40;;;;;;4844978;29;19943;-83
2021/03/27 13:48:30;;;;;;;;;;;8.30;76.70;;;;;;4875719;29;19924;-83
2021/03/27 13:51:11;;;;;;;;;;;8.30;75.60;;;;;;4880708;29;19988;-83
2021/03/27 13:54:00;;;;;;;;;;;8.40;76.00;;;;;;4875398;29;19970;-81
2021/03/27 13:56:26;;;;;;;;;;;8.40;74.20;;;;;;4867212;29;19924;-82
2021/03/27 13:58:55;;;;;;;;;;;8.50;73.90;;;;;;4881339;29;19924;-82
2021/03/27 14:01:34;;;;;;;;;;;8.40;74.70;;;;;;4877148;29;19924;-82
2021/03/27 14:04:06;;;;;;;;;;;8.40;75.70;;;;;;4878802;29;19924;-82
2021/03/27 14:06:38;;;;;;;;;;;8.30;76.50;;;;;;4878460;29;19923;-82
2021/03/27 14:09:03;;;;;;;;;;;8.20;77.00;;;;;;4873092;29;19920;-81
2021/03/27 14:11:35;;;;;;;;;;;8.10;77.80;;;;;;4882924;29;20280;-81
2021/03/27 14:14:03;;;;;;;;;;;8.00;78.30;;;;;;4866050;29;19920;-81
2021/03/27 14:16:36;;;;;;;;;;;8.00;78.70;;;;;;4874777;29;19923;-81
2021/03/27 14:19:04;;;;;;;;;;;8.00;79.40;;;;;;4866789;29;19975;-82
2021/03/27 14:21:33;;;;;;;;;;;8.00;79.80;;;;;;4872926;29;20296;-82
2021/03/27 14:24:17;;;;;;;;;;;8.00;79.90;;;;;;4870539;29;20430;-82
2021/03/27 14:26:59;;;;;;;;;;;8.00;80.20;;;;;;4866314;29;20381;-81
2021/03/27 14:29:40;;;;;;;;;;;8.10;80.60;;;;;;4874584;29;20300;-82
2021/03/27 14:32:18;;;;;;;;;;;8.00;80.60;;;;;;4871211;29;19924;-82
2021/03/27 14:34:43;;;;;;;;;;;8.00;80.40;;;;;;4874873;29;19919;-82
2021/03/27 14:37:28;;;;;;;;;;;8.00;80.10;;;;;;4866216;29;19931;-83
2021/03/27 14:40:06;;;;;;;;;;;8.00;80.30;;;;;;4861769;29;19920;-83
2021/03/27 14:42:38;;;;;;;;;;;8.00;80.20;;;;;;4845408;29;19978;-83
2021/03/27 14:45:18;;;;;;;;;;;8.10;80.30;;;;;;4866695;29;19931;-80
2021/03/27 14:47:50;;;;;;;;;;;8.20;80.80;;;;;;4863881;29;19927;-81
2021/03/27 14:50:22;;;;;;;;;;;8.20;80.80;;;;;;4869172;29;19924;-81
2021/03/27 14:53:08;;;;;;;;;;;8.20;80.40;;;;;;4873676;29;19931;-81
2021/03/27 14:55:41;;;;;;;;;;;8.20;80.60;;;;;;4860914;29;20373;-82
2021/03/27 14:58:25;;;;;;;;;;;8.20;80.10;;;;;;4860387;29;19924;-81
2021/03/27 15:00:56;;;;;;;;;;;8.20;80.40;;;;;;4875533;29;19924;-82
2021/03/27 15:03:54;;;;;;;;;;;8.20;79.20;;;;;;4869063;29;19924;-83
2021/03/27 15:06:22;;;;;;;;;;;8.30;78.70;;;;;;4860936;29;20485;-82
2021/03/27 15:08:58;;;;;;;;;;;8.30;77.40;;;;;;4862775;29;20396;-82
2021/03/27 15:11:32;;;;;;;;;;;8.30;77.00;;;;;;4861200;29;19931;-82
2021/03/27 15:14:14;;;;;;;;;;;8.30;77.30;;;;;;4865660;29;19927;-83
2021/03/27 15:16:56;;;;;;;;;;;8.40;77.10;;;;;;4864346;29;20391;-82
2021/03/27 15:19:21;;;;;;;;;;;8.30;76.90;;;;;;4873577;29;20392;-82
2021/03/27 15:22:05;;;;;;;;;;;8.40;76.90;;;;;;4879439;29;20060;-82
2021/03/27 15:24:46;;;;;;;;;;;8.40;76.50;;;;;;4868025;29;20362;-83
2021/03/27 15:27:17;;;;;;;;;;;8.30;76.40;;;;;;4859930;29;20072;-83
2021/03/27 15:30:01;;;;;;;;;;;8.40;76.70;;;;;;4861383;29;19987;-83
2021/03/27 15:32:27;;;;;;;;;;;8.40;76.50;;;;;;4875662;29;19928;-82
2021/03/27 15:35:03;;;;;;;;;;;8.40;75.90;;;;;;4879525;29;20435;-82
2021/03/27 15:37:43;;;;;;;;;;;8.40;75.50;;;;;;4879668;29;20006;-82
2021/03/27 15:40:12;;;;;;;;;;;8.40;75.30;;;;;;4876929;29;19923;-83
2021/03/27 15:43:13;;;;;;;;;;;8.40;75.40;;;;;;4879286;29;19947;-83
2021/03/27 15:46:10;;;;;;;;;;;8.40;75.00;;;;;;4821664;29;20393;-83
2021/03/27 15:48:44;;;;;;;;;;;8.40;74.80;;;;;;4872593;29;19923;-83
2021/03/27 15:51:29;;;;;;;;;;;8.30;74.30;;;;;;4878243;29;19924;-84
2021/03/27 15:54:01;;;;;;;;;;;8.30;73.50;;;;;;4865677;29;19997;-84
2021/03/27 15:56:26;;;;;;;;;;;8.20;73.20;;;;;;4882228;29;19931;-84
2021/03/27 15:58:56;;;;;;;;;;;8.20;73.90;;;;;;4873198;29;19924;-82
2021/03/27 16:01:27;;;;;;;;;;;8.20;74.30;;;;;;4884477;29;20019;-85
2021/03/27 16:04:16;;;;;;;;;;;8.10;74.00;;;;;;4886871;29;19924;-84
2021/03/27 16:06:45;;;;;;;;;;;8.10;74.60;;;;;;4863154;29;20023;-87
2021/03/27 16:09:13;;;;;;;;;;;8.10;74.60;;;;;;4884251;29;19958;-82
2021/03/27 16:11:44;;;;;;;;;;;8.10;74.90;;;;;;4883808;29;19930;-82
2021/03/27 16:14:13;;;;;;;;;;;8.10;74.90;;;;;;4871507;29;20010;-83